Time;durP1;ratioP1;P1;durP2;ratioP2;P2;SDS_P1;SDS_P2;PMS_P1;PMS_P2;Temp;Humidity;BMP_temperature;BMP_pressure;BME280_temperature;BME280_humidity;BME280_pressure;Samples;Min_cycle;Max_cycle;Signal;HPM_P1;HPM_P2
2021/05/03 00:01:14;;;;;;;12.73;8.00;;;5.90;86.30;;;;;;4959096;28;20070;-74
2021/05/03 00:03:40;;;;;;;11.02;7.55;;;5.90;86.20;;;;;;4958698;28;20034;-74
2021/05/03 00:06:06;;;;;;;11.02;8.13;;;5.90;86.10;;;;;;4959010;28;20022;-75
2021/05/03 00:08:31;;;;;;;10.07;7.35;;;5.90;86.20;;;;;;4962678;28;20023;-74
2021/05/03 00:10:57;;;;;;;9.90;7.20;;;5.90;86.20;;;;;;4960694;28;20103;-75
2021/05/03 00:13:25;;;;;;;13.05;7.55;;;5.80;86.00;;;;;;4958114;28;20065;-75
2021/05/03 00:15:51;;;;;;;13.32;7.38;;;5.80;86.20;;;;;;4961071;28;20023;-74
2021/05/03 00:18:16;;;;;;;12.23;7.72;;;5.80;86.30;;;;;;4964443;28;20054;-75
2021/05/03 00:20:43;;;;;;;11.73;7.22;;;5.80;86.50;;;;;;4958571;28;20022;-76
2021/05/03 00:23:09;;;;;;;11.98;8.38;;;5.90;86.70;;;;;;4963592;28;20118;-75
2021/05/03 00:25:35;;;;;;;12.35;7.95;;;5.80;86.80;;;;;;4962109;28;20031;-75
2021/05/03 00:28:01;;;;;;;10.63;7.53;;;5.90;87.00;;;;;;4961536;28;20104;-76
2021/05/03 00:30:26;;;;;;;13.45;7.65;;;5.80;87.00;;;;;;4962856;28;20039;-76
2021/05/03 00:32:52;;;;;;;9.43;6.43;;;5.90;87.10;;;;;;4961768;28;20054;-76
2021/05/03 00:35:18;;;;;;;11.52;7.47;;;5.90;86.90;;;;;;4960100;28;20042;-75
2021/05/03 00:37:44;;;;;;;11.50;7.18;;;5.80;87.00;;;;;;4957058;28;20038;-76
2021/05/03 00:40:10;;;;;;;10.75;7.13;;;5.90;87.20;;;;;;4958044;28;20435;-75
2021/05/03 00:42:36;;;;;;;13.00;7.90;;;5.90;87.20;;;;;;4957996;28;20042;-75
2021/05/03 00:45:11;;;;;;;12.10;7.95;;;5.90;87.90;;;;;;4956359;28;20035;-75
2021/05/03 00:47:37;;;;;;;9.88;7.10;;;5.90;87.00;;;;;;4959361;28;20046;-75
2021/05/03 00:50:05;;;;;;;9.95;7.40;;;5.90;86.90;;;;;;4958591;28;20042;-75
2021/05/03 00:52:30;;;;;;;10.95;7.10;;;5.90;87.00;;;;;;4956537;28;20158;-75
2021/05/03 00:54:56;;;;;;;13.23;7.53;;;5.90;86.80;;;;;;4954503;28;20114;-75
2021/05/03 00:57:22;;;;;;;10.60;7.53;;;5.90;87.10;;;;;;4964700;28;20039;-74
2021/05/03 00:59:48;;;;;;;11.07;7.22;;;5.90;87.10;;;;;;4955917;28;21356;-75
2021/05/03 01:02:13;;;;;;;11.20;7.47;;;5.90;87.20;;;;;;4961150;28;20027;-75
2021/05/03 01:04:40;;;;;;;11.30;7.78;;;5.90;87.20;;;;;;4956861;28;20500;-75
2021/05/03 01:07:06;;;;;;;11.07;7.00;;;5.90;87.10;;;;;;4956344;28;20028;-75
2021/05/03 01:09:32;;;;;;;12.55;7.70;;;5.90;87.10;;;;;;4955916;28;20035;-76
2021/05/03 01:11:57;;;;;;;9.70;7.00;;;6.00;87.20;;;;;;4957191;28;20026;-75
2021/05/03 01:14:23;;;;;;;12.95;7.85;;;5.90;87.40;;;;;;4959712;28;20149;-75
2021/05/03 01:16:49;;;;;;;10.82;7.15;;;5.90;87.20;;;;;;4959828;28;20343;-75
2021/05/03 01:19:19;;;;;;;10.95;6.85;;;5.90;87.40;;;;;;4958499;28;20039;-75
2021/05/03 01:21:44;;;;;;;12.02;7.65;;;5.90;87.20;;;;;;4958782;28;20035;-76
2021/05/03 01:24:10;;;;;;;14.30;8.40;;;5.90;87.30;;;;;;4963884;28;20043;-76
2021/05/03 01:26:36;;;;;;;11.40;7.88;;;5.90;87.20;;;;;;4960972;28;20142;-76
2021/05/03 01:29:02;;;;;;;9.98;7.80;;;5.90;86.90;;;;;;4974939;28;20473;-75
2021/05/03 01:31:28;;;;;;;10.77;8.05;;;5.90;86.90;;;;;;4960682;28;20057;-75
2021/05/03 01:33:53;;;;;;;12.65;8.45;;;5.90;86.90;;;;;;4955943;28;20042;-75
2021/05/03 01:36:19;;;;;;;10.82;7.28;;;5.80;86.80;;;;;;4961158;28;20045;-75
2021/05/03 01:38:45;;;;;;;10.45;7.80;;;5.80;86.80;;;;;;4961318;28;20476;-75
2021/05/03 01:41:10;;;;;;;11.27;8.38;;;5.80;86.80;;;;;;4967031;28;20031;-75
2021/05/03 01:43:36;;;;;;;10.55;7.65;;;5.80;86.80;;;;;;4961382;28;20028;-74
2021/05/03 01:46:02;;;;;;;12.52;7.80;;;5.80;86.90;;;;;;4955577;28;20023;-75
2021/05/03 01:48:30;;;;;;;11.30;7.45;;;5.80;86.90;;;;;;4958228;28;20382;-74
2021/05/03 01:50:57;;;;;;;10.15;7.45;;;5.80;87.00;;;;;;4958316;28;20090;-75
2021/05/03 01:53:24;;;;;;;11.70;7.50;;;5.80;86.90;;;;;;4959410;28;20050;-75
2021/05/03 01:55:52;;;;;;;13.23;8.23;;;5.70;86.90;;;;;;4958539;28;20038;-75
2021/05/03 01:58:18;;;;;;;11.57;8.27;;;5.70;86.70;;;;;;4958760;28;20061;-75
2021/05/03 02:00:44;;;;;;;11.93;8.43;;;5.60;86.40;;;;;;4956981;28;20366;-75
2021/05/03 02:03:21;;;;;;;14.45;8.90;;;5.60;86.00;;;;;;4962153;28;20086;-75
2021/05/03 02:05:47;;;;;;;10.25;6.82;;;5.60;86.00;;;;;;4957469;28;20059;-74
2021/05/03 02:08:13;;;;;;;12.90;8.25;;;5.40;85.30;;;;;;4958426;28;20061;-75
2021/05/03 02:10:39;;;;;;;12.77;7.38;;;5.20;86.20;;;;;;4957560;28;20035;-75
2021/05/03 02:13:05;;;;;;;14.40;8.23;;;5.20;86.80;;;;;;4956094;28;20063;-76
2021/05/03 02:15:32;;;;;;;11.38;7.40;;;5.20;86.70;;;;;;4954690;28;20033;-75
2021/05/03 02:17:58;;;;;;;14.32;8.25;;;5.20;86.30;;;;;;4963299;28;20023;-76
2021/05/03 02:20:23;;;;;;;13.15;8.18;;;5.20;86.30;;;;;;4963114;28;20110;-76
2021/05/03 02:22:49;;;;;;;12.07;8.10;;;5.20;86.20;;;;;;4957210;28;20069;-75
2021/05/03 02:25:15;;;;;;;11.10;8.30;;;5.20;86.00;;;;;;4957807;28;20023;-75
2021/05/03 02:27:40;;;;;;;12.93;8.43;;;5.10;86.50;;;;;;4957585;28;20031;-75
2021/05/03 02:30:08;;;;;;;14.38;9.05;;;5.10;86.60;;;;;;4954611;28;20045;-75
2021/05/03 02:32:37;;;;;;;10.50;7.45;;;5.10;86.50;;;;;;4956566;28;20105;-75
2021/05/03 02:35:09;;;;;;;12.68;9.25;;;5.10;86.40;;;;;;4971352;28;20030;-75
2021/05/03 02:37:35;;;;;;;12.63;8.82;;;5.10;86.50;;;;;;4957646;28;20035;-75
2021/05/03 02:40:01;;;;;;;15.18;9.25;;;5.00;86.60;;;;;;4955525;28;20093;-75
2021/05/03 02:42:27;;;;;;;13.25;8.30;;;5.10;86.90;;;;;;4960245;28;20478;-75
2021/05/03 02:44:52;;;;;;;13.98;8.60;;;5.10;87.00;;;;;;4954549;28;20054;-75
2021/05/03 02:47:18;;;;;;;13.65;8.45;;;5.00;87.10;;;;;;4961776;28;20049;-75
2021/05/03 02:49:44;;;;;;;13.90;8.00;;;5.10;87.10;;;;;;4954956;28;20030;-76
2021/05/03 02:52:10;;;;;;;12.75;8.32;;;5.10;86.90;;;;;;4954166;28;20430;-75
2021/05/03 02:54:35;;;;;;;11.57;8.45;;;5.10;86.80;;;;;;4964414;28;20026;-76
2021/05/03 02:57:01;;;;;;;14.00;9.02;;;5.00;86.20;;;;;;4969989;28;20113;-76
2021/05/03 02:59:27;;;;;;;11.55;8.15;;;4.90;86.60;;;;;;4954160;28;22264;-75
2021/05/03 03:01:53;;;;;;;12.73;8.40;;;5.00;86.70;;;;;;4954015;28;20028;-76
2021/05/03 03:04:18;;;;;;;12.82;8.27;;;4.90;86.90;;;;;;4957711;28;20041;-75
2021/05/03 03:06:44;;;;;;;16.35;9.18;;;5.00;86.70;;;;;;4960287;28;20112;-75
2021/05/03 03:09:10;;;;;;;11.82;8.57;;;5.00;86.60;;;;;;4958521;28;20022;-75
2021/05/03 03:11:35;;;;;;;14.48;8.48;;;4.90;86.20;;;;;;4965765;28;20034;-75
2021/05/03 03:14:02;;;;;;;13.10;8.60;;;4.90;86.10;;;;;;4956254;28;20034;-76
2021/05/03 03:16:28;;;;;;;12.57;8.02;;;4.80;86.50;;;;;;4956360;28;20031;-76
2021/05/03 03:18:59;;;;;;;13.02;8.50;;;4.60;86.70;;;;;;4956494;28;20312;-75
2021/05/03 03:21:25;;;;;;;13.00;7.53;;;4.70;86.10;;;;;;4952513;28;20035;-75
2021/05/03 03:23:51;;;;;;;13.70;7.82;;;4.50;84.60;;;;;;4955122;28;20034;-75
2021/05/03 03:26:18;;;;;;;11.93;7.57;;;4.40;85.90;;;;;;4959243;28;20113;-75
2021/05/03 03:28:44;;;;;;;11.20;7.68;;;4.30;86.40;;;;;;4956408;28;20074;-75
2021/05/03 03:31:09;;;;;;;12.27;9.05;;;4.20;86.50;;;;;;4956189;28;20097;-76
2021/05/03 03:33:35;;;;;;;14.55;8.23;;;4.20;86.70;;;;;;4956224;28;20530;-76
2021/05/03 03:36:01;;;;;;;15.80;8.50;;;4.20;86.90;;;;;;4954341;28;20541;-75
2021/05/03 03:38:27;;;;;;;13.07;8.45;;;4.20;86.40;;;;;;4957624;28;20482;-74
2021/05/03 03:40:52;;;;;;;13.60;8.27;;;4.20;87.00;;;;;;4956326;28;20110;-74
2021/05/03 03:43:18;;;;;;;15.02;9.10;;;4.20;87.30;;;;;;4959402;28;20413;-75
2021/05/03 03:45:44;;;;;;;13.35;8.07;;;4.20;87.50;;;;;;4954912;28;20058;-74
2021/05/03 03:48:09;;;;;;;13.68;7.70;;;4.20;87.60;;;;;;4958474;28;20093;-75
2021/05/03 03:50:36;;;;;;;14.25;8.57;;;4.20;87.70;;;;;;4954817;28;20073;-74
2021/05/03 03:53:02;;;;;;;14.13;8.68;;;4.10;87.60;;;;;;4954119;28;20023;-75
2021/05/03 03:55:27;;;;;;;13.40;8.38;;;4.10;87.70;;;;;;4953555;28;20045;-75
2021/05/03 03:57:53;;;;;;;13.05;8.48;;;4.20;87.50;;;;;;4956541;28;20107;-75
2021/05/03 04:00:20;;;;;;;15.20;9.57;;;4.20;87.50;;;;;;4959032;28;20022;-75
2021/05/03 04:02:47;;;;;;;19.08;9.23;;;4.30;87.40;;;;;;4958701;28;20030;-74
2021/05/03 04:05:22;;;;;;;16.38;9.45;;;4.20;87.40;;;;;;4957554;28;20102;-75
2021/05/03 04:08:13;;;;;;;10.52;7.95;;;4.20;87.30;;;;;;4955482;28;20035;-74
2021/05/03 04:26:34;;;;;;;12.10;7.80;;;3.90;85.90;;;;;;4956393;28;20026;-76
2021/05/03 04:29:00;;;;;;;13.18;7.82;;;4.00;86.50;;;;;;4959380;28;20389;-75
2021/05/03 04:31:26;;;;;;;13.23;9.27;;;4.00;87.30;;;;;;4957326;28;20123;-76
2021/05/03 04:33:52;;;;;;;18.55;8.20;;;4.10;87.60;;;;;;4961882;28;20058;-75
2021/05/03 04:36:19;;;;;;;14.18;8.90;;;4.10;87.80;;;;;;4965308;28;20023;-76
2021/05/03 04:38:45;;;;;;;16.15;8.73;;;4.10;87.70;;;;;;4960380;28;20023;-75
2021/05/03 04:41:10;;;;;;;13.35;8.75;;;4.20;87.90;;;;;;4966527;28;20125;-75
2021/05/03 04:43:37;;;;;;;13.07;7.80;;;4.20;88.00;;;;;;4966589;28;20027;-75
2021/05/03 04:46:03;;;;;;;13.38;8.55;;;4.20;88.00;;;;;;4969709;28;20027;-75
2021/05/03 04:48:29;;;;;;;13.35;8.02;;;4.30;88.00;;;;;;4969807;28;20019;-75
2021/05/03 04:50:55;;;;;;;11.60;7.78;;;4.30;88.10;;;;;;4968308;28;20031;-75
2021/05/03 04:53:21;;;;;;;13.77;8.63;;;4.30;87.90;;;;;;4965219;28;20051;-75
2021/05/03 04:55:47;;;;;;;11.20;7.22;;;4.30;88.00;;;;;;4963155;28;20433;-75
2021/05/03 04:58:14;;;;;;;12.90;8.50;;;4.30;88.00;;;;;;4958146;28;20033;-76
2021/05/03 05:00:40;;;;;;;13.50;8.02;;;4.40;87.70;;;;;;4959472;28;20031;-75
2021/05/03 05:03:06;;;;;;;11.73;8.57;;;4.40;87.40;;;;;;4955260;28;20457;-76
2021/05/03 05:05:31;;;;;;;14.80;8.48;;;4.40;88.20;;;;;;4957765;28;20038;-75
2021/05/03 05:07:57;;;;;;;11.70;8.07;;;4.50;89.30;;;;;;4958401;28;20031;-75
2021/05/03 05:10:24;;;;;;;16.13;9.80;;;4.50;88.30;;;;;;4959176;28;20176;-75
2021/05/03 05:12:50;;;;;;;14.77;8.57;;;4.60;88.40;;;;;;4962794;28;20027;-76
2021/05/03 05:15:17;;;;;;;16.63;8.32;;;4.60;88.50;;;;;;4969495;28;20106;-75
2021/05/03 05:17:45;;;;;;;11.88;8.40;;;4.70;88.50;;;;;;4962070;28;20038;-75
2021/05/03 05:20:11;;;;;;;12.25;8.27;;;4.70;88.60;;;;;;4957648;28;20514;-75
2021/05/03 05:22:38;;;;;;;18.73;9.40;;;4.80;88.30;;;;;;4958277;28;20031;-76
2021/05/03 05:25:05;;;;;;;13.00;8.32;;;4.90;88.00;;;;;;4957521;28;20149;-76
2021/05/03 05:27:30;;;;;;;14.43;8.35;;;4.90;88.10;;;;;;4973441;28;20026;-75
2021/05/03 05:29:56;;;;;;;8.90;7.13;;;4.90;88.10;;;;;;4963366;28;20030;-76
2021/05/03 05:32:22;;;;;;;14.82;8.80;;;5.00;88.20;;;;;;4966183;28;20027;-76
2021/05/03 05:34:47;;;;;;;14.43;8.85;;;5.10;88.30;;;;;;4961549;28;20437;-77
2021/05/03 05:37:13;;;;;;;11.55;7.57;;;5.10;88.00;;;;;;4959911;28;20098;-74
2021/05/03 05:39:38;;;;;;;18.40;7.68;;;5.20;88.00;;;;;;4961611;28;20054;-74
2021/05/03 05:42:05;;;;;;;13.43;8.45;;;5.20;87.80;;;;;;4964055;28;20034;-76
2021/05/03 05:44:30;;;;;;;12.30;7.90;;;5.30;87.80;;;;;;4966902;28;20029;-76
2021/05/03 05:46:56;;;;;;;10.65;7.18;;;5.40;88.30;;;;;;4971264;28;20026;-76
2021/05/03 05:49:22;;;;;;;12.50;8.10;;;5.40;88.00;;;;;;4969348;28;20039;-75
2021/05/03 05:51:47;;;;;;;10.27;7.30;;;5.50;88.40;;;;;;4968670;28;20027;-75
2021/05/03 05:54:13;;;;;;;14.73;8.63;;;5.50;88.30;;;;;;4964655;28;20054;-75
2021/05/03 05:56:39;;;;;;;13.10;7.40;;;5.70;88.70;;;;;;4968780;28;20022;-75
2021/05/03 05:59:04;;;;;;;15.35;8.70;;;5.70;87.90;;;;;;4968771;28;20081;-76
2021/05/03 06:01:30;;;;;;;14.68;9.00;;;5.80;88.20;;;;;;4970837;28;20077;-75
2021/05/03 06:03:56;;;;;;;11.00;8.43;;;5.80;88.30;;;;;;4962513;28;20416;-75
2021/05/03 06:06:21;;;;;;;12.73;7.95;;;5.90;87.90;;;;;;4982888;28;20133;-75
2021/05/03 06:08:48;;;;;;;13.70;8.40;;;6.00;88.50;;;;;;4967678;28;20030;-74
2021/05/03 06:11:14;;;;;;;14.00;8.25;;;5.90;87.80;;;;;;4971404;28;20034;-75
2021/05/03 06:13:40;;;;;;;14.13;8.07;;;6.00;88.70;;;;;;4968173;28;20022;-75
2021/05/03 06:16:06;;;;;;;14.55;8.90;;;6.00;87.30;;;;;;4969286;28;20031;-75
2021/05/03 06:18:32;;;;;;;11.65;7.55;;;6.10;87.50;;;;;;4970033;28;20023;-74
2021/05/03 06:20:57;;;;;;;12.52;8.07;;;6.20;86.40;;;;;;4970272;28;20023;-76
2021/05/03 06:23:23;;;;;;;13.43;7.82;;;6.20;87.30;;;;;;4968593;28;20226;-75
2021/05/03 06:25:49;;;;;;;11.80;7.35;;;6.30;86.10;;;;;;4968599;28;20034;-75
2021/05/03 06:28:14;;;;;;;12.23;7.80;;;6.40;87.20;;;;;;4968341;28;20054;-75
2021/05/03 06:30:40;;;;;;;14.48;8.10;;;6.40;85.70;;;;;;4969351;28;20058;-75
2021/05/03 06:33:06;;;;;;;11.05;7.43;;;6.50;85.60;;;;;;4967620;28;20027;-75
2021/05/03 06:35:33;;;;;;;16.23;8.60;;;6.50;86.10;;;;;;4969114;28;20126;-75
2021/05/03 06:37:59;;;;;;;12.63;7.50;;;6.60;85.20;;;;;;4971391;28;20097;-75
2021/05/03 06:40:25;;;;;;;12.13;7.70;;;6.70;85.40;;;;;;4966938;28;20114;-75
2021/05/03 06:42:50;;;;;;;12.52;8.18;;;6.70;84.70;;;;;;4970767;28;20106;-75
2021/05/03 06:45:18;;;;;;;11.25;7.90;;;6.70;83.70;;;;;;4968792;28;20023;-75
2021/05/03 06:47:45;;;;;;;11.55;8.18;;;6.90;84.20;;;;;;4966927;28;20093;-76
2021/05/03 06:50:12;;;;;;;12.15;8.05;;;6.90;83.50;;;;;;4974339;28;20378;-75
2021/05/03 06:52:39;;;;;;;12.27;7.78;;;7.00;83.60;;;;;;4966973;28;20501;-75
2021/05/03 06:55:06;;;;;;;10.93;7.47;;;7.10;83.90;;;;;;4972343;28;20410;-75
2021/05/03 06:57:32;;;;;;;13.43;8.50;;;7.10;83.30;;;;;;4969234;28;20014;-75
2021/05/03 06:59:59;;;;;;;11.00;7.10;;;7.20;82.50;;;;;;4968699;28;20025;-75
2021/05/03 07:02:25;;;;;;;10.90;7.35;;;7.30;83.00;;;;;;4972484;28;20038;-75
2021/05/03 07:04:51;;;;;;;12.15;7.93;;;7.30;81.20;;;;;;4967416;28;20513;-75
2021/05/03 07:07:17;;;;;;;12.40;7.95;;;7.40;81.70;;;;;;4969979;28;20038;-76
2021/05/03 07:09:46;;;;;;;12.18;7.82;;;7.50;82.00;;;;;;4972463;28;20030;-75
2021/05/03 07:12:13;;;;;;;14.02;8.60;;;7.50;80.80;;;;;;4967649;28;20030;-76
2021/05/03 07:14:39;;;;;;;11.88;8.00;;;7.60;80.60;;;;;;4968687;28;20089;-75
2021/05/03 07:17:05;;;;;;;11.10;7.13;;;7.60;81.30;;;;;;4968669;28;20019;-75
2021/05/03 07:19:32;;;;;;;9.88;7.15;;;7.70;79.70;;;;;;4968897;28;20042;-75
2021/05/03 07:21:59;;;;;;;12.30;7.88;;;7.70;80.10;;;;;;4967504;28;20085;-76
2021/05/03 07:24:25;;;;;;;10.07;7.47;;;7.80;79.60;;;;;;4968477;28;20446;-75
2021/05/03 07:26:51;;;;;;;9.55;6.57;;;7.80;78.40;;;;;;4969692;28;20058;-75
2021/05/03 07:29:17;;;;;;;13.23;7.43;;;7.90;76.60;;;;;;4970601;28;20117;-75
2021/05/03 07:31:43;;;;;;;10.18;7.00;;;8.00;76.90;;;;;;4966160;28;20569;-75
2021/05/03 07:34:10;;;;;;;9.85;7.00;;;8.10;78.00;;;;;;4965025;28;20041;-75
2021/05/03 07:36:35;;;;;;;10.02;6.97;;;8.20;76.80;;;;;;4968232;28;20137;-75
2021/05/03 07:39:01;;;;;;;10.73;7.20;;;8.10;77.00;;;;;;4967063;28;20518;-74
2021/05/03 07:41:27;;;;;;;9.82;6.78;;;8.20;76.90;;;;;;4972201;28;20137;-75
2021/05/03 07:43:52;;;;;;;10.98;6.70;;;8.30;78.20;;;;;;4971893;28;20023;-75
2021/05/03 07:46:24;;;;;;;10.07;7.10;;;8.30;75.10;;;;;;4968588;28;20105;-75
2021/05/03 07:48:51;;;;;;;9.23;6.72;;;8.30;76.00;;;;;;4968841;28;20097;-75
2021/05/03 07:51:17;;;;;;;9.68;6.32;;;8.40;75.60;;;;;;4968089;28;20022;-75
2021/05/03 07:53:42;;;;;;;7.40;6.13;;;8.40;73.60;;;;;;4966278;28;20029;-75
2021/05/03 07:56:08;;;;;;;9.23;6.35;;;8.60;74.40;;;;;;4964586;28;20147;-75
2021/05/03 07:58:33;;;;;;;9.00;6.53;;;8.60;71.10;;;;;;4972430;28;20027;-75
2021/05/03 08:00:59;;;;;;;13.07;7.43;;;8.70;71.60;;;;;;4972016;28;20047;-76
2021/05/03 08:03:25;;;;;;;10.10;6.40;;;8.80;73.90;;;;;;4972681;28;20027;-75
2021/05/03 08:05:50;;;;;;;10.15;5.97;;;8.90;71.10;;;;;;4979016;28;20490;-75
2021/05/03 08:08:16;;;;;;;9.95;6.15;;;8.90;70.40;;;;;;4977580;28;20022;-75
2021/05/03 08:10:41;;;;;;;9.70;5.88;;;9.10;71.90;;;;;;4970749;28;20129;-75
2021/05/03 08:13:07;;;;;;;7.20;5.00;;;9.10;70.10;;;;;;4976695;28;20074;-76
2021/05/03 08:15:34;;;;;;;10.43;6.45;;;9.10;69.80;;;;;;4970416;28;20080;-75
2021/05/03 08:18:00;;;;;;;11.23;5.95;;;9.10;70.40;;;;;;4972794;28;20015;-76
2021/05/03 08:20:26;;;;;;;8.57;5.35;;;9.00;68.80;;;;;;4969749;28;20025;-75
2021/05/03 08:22:52;;;;;;;9.10;5.57;;;9.00;67.50;;;;;;4971172;28;20051;-76
2021/05/03 08:25:18;;;;;;;8.32;5.53;;;9.10;67.70;;;;;;4971864;28;20027;-76
2021/05/03 08:27:44;;;;;;;8.30;5.78;;;9.20;68.90;;;;;;4972712;28;20023;-75
2021/05/03 08:30:10;;;;;;;7.60;5.25;;;9.30;68.40;;;;;;4971244;28;20787;-75
2021/05/03 08:32:36;;;;;;;8.65;5.45;;;9.20;68.00;;;;;;4973448;28;20059;-76
2021/05/03 08:35:03;;;;;;;9.43;5.75;;;9.20;69.60;;;;;;4970913;28;20138;-75
2021/05/03 08:37:28;;;;;;;6.70;5.55;;;9.40;70.60;;;;;;4971909;28;20037;-74
2021/05/03 08:39:54;;;;;;;7.03;4.60;;;9.40;66.10;;;;;;4969946;28;20034;-75
2021/05/03 08:42:20;;;;;;;9.48;5.20;;;9.50;67.30;;;;;;4970158;28;20038;-76
2021/05/03 08:44:48;;;;;;;6.45;4.18;;;9.50;65.30;;;;;;4971273;28;20109;-76
2021/05/03 08:47:13;;;;;;;6.77;4.80;;;9.60;65.80;;;;;;4972737;28;20125;-76
2021/05/03 08:49:57;;;;;;;6.13;4.40;;;9.60;67.40;;;;;;4976703;28;20282;-77
2021/05/03 08:54:49;;;;;;;6.35;4.47;;;9.70;66.70;;;;;;4973350;28;20022;-76
2021/05/03 08:57:15;;;;;;;8.23;4.85;;;9.80;64.80;;;;;;4971967;28;20110;-76
2021/05/03 08:59:42;;;;;;;5.40;3.72;;;9.90;64.20;;;;;;4973873;28;20023;-75
2021/05/03 09:02:11;;;;;;;5.95;4.68;;;10.10;62.40;;;;;;4975471;28;20542;-76
2021/05/03 09:04:36;;;;;;;;;;;10.00;61.10;;;;;;4971057;28;20030;-76
2021/05/03 09:07:05;;;;;;;5.60;4.40;;;10.10;64.30;;;;;;4970500;28;19906;-76
2021/05/03 09:09:52;;;;;;;5.45;4.43;;;10.20;66.00;;;;;;4973586;28;20516;-76
2021/05/03 09:12:20;;;;;;;7.50;4.50;;;10.40;63.10;;;;;;4971490;28;20050;-76
2021/05/03 09:14:46;;;;;;;5.68;4.30;;;10.50;60.90;;;;;;4969715;28;20030;-76
2021/05/03 09:17:31;;;;;;;5.40;4.47;;;10.60;62.00;;;;;;4970841;28;20089;-76
2021/05/03 09:20:02;;;;;;;8.70;4.85;;;10.60;60.70;;;;;;4968018;28;20050;-76
2021/05/03 09:22:32;;;;;;;7.45;4.65;;;10.70;62.00;;;;;;4971251;28;20037;-76
2021/05/03 09:25:18;;;;;;;6.05;4.18;;;10.70;58.00;;;;;;4969540;28;20433;-75
2021/05/03 09:27:46;;;;;;;5.43;4.32;;;10.80;60.90;;;;;;4974556;28;20177;-76
2021/05/03 09:30:13;;;;;;;6.60;4.68;;;10.70;61.70;;;;;;4969508;28;20045;-76
2021/05/03 09:32:40;;;;;;;5.75;4.18;;;10.50;60.90;;;;;;4971293;28;20035;-76
2021/05/03 09:35:06;;;;;;;6.72;4.30;;;10.40;59.00;;;;;;4968710;28;20022;-75
2021/05/03 09:37:36;;;;;;;4.95;3.75;;;10.30;60.10;;;;;;4976695;28;20022;-76
2021/05/03 09:40:11;;;;;;;6.20;3.88;;;10.40;61.50;;;;;;4976968;28;20023;-76
2021/05/03 09:42:55;;;;;;;4.57;3.28;;;10.60;59.60;;;;;;4976166;28;20018;-76
2021/05/03 09:45:27;;;;;;;5.25;3.42;;;10.60;57.20;;;;;;4971509;28;20057;-75
2021/05/03 09:47:54;;;;;;;5.78;3.22;;;10.50;56.50;;;;;;4971660;28;20074;-76
2021/05/03 09:50:26;;;;;;;5.82;4.07;;;10.30;56.00;;;;;;4975028;28;20023;-75
2021/05/03 09:53:13;;;;;;;6.93;3.97;;;10.10;59.00;;;;;;4975268;28;20038;-75
2021/05/03 09:55:51;;;;;;;5.82;3.95;;;10.10;59.20;;;;;;4969444;28;20061;-75
2021/05/03 09:58:22;;;;;;;5.82;3.60;;;10.00;58.00;;;;;;4966917;28;20391;-75
2021/05/03 10:00:56;;;;;;;6.00;3.70;;;9.90;58.90;;;;;;4981994;28;20023;-75
2021/05/03 10:03:46;;;;;;;5.25;3.60;;;10.10;59.70;;;;;;4969290;28;20023;-76
2021/05/03 10:06:17;;;;;;;4.90;3.63;;;10.40;60.30;;;;;;4965624;28;20038;-75
2021/05/03 10:08:47;;;;;;;6.20;4.00;;;10.60;60.50;;;;;;4968886;28;20461;-76
2021/05/03 10:11:17;;;;;;;7.05;3.83;;;10.80;60.90;;;;;;4971893;28;20030;-75
2021/05/03 10:13:51;;;;;;;5.72;4.22;;;11.10;61.10;;;;;;4968258;28;20022;-75
2021/05/03 10:16:18;;;;;;;6.50;4.20;;;11.00;59.40;;;;;;4969589;28;20019;-75
2021/05/03 10:18:45;;;;;;;6.40;4.00;;;10.80;57.30;;;;;;4972091;28;20043;-75
2021/05/03 10:21:13;;;;;;;5.65;3.75;;;10.70;54.60;;;;;;4969776;28;20034;-76
2021/05/03 10:23:40;;;;;;;;;;;10.60;56.40;;;;;;4970757;28;20109;-75
2021/05/03 10:26:06;;;;;;;7.45;3.50;;;10.50;57.30;;;;;;4967485;28;20008;-76
2021/05/03 10:28:47;;;;;;;4.95;3.55;;;10.40;56.30;;;;;;4973884;28;20639;-75
2021/05/03 10:31:13;;;;;;;5.85;3.47;;;10.40;55.10;;;;;;4968247;28;20043;-75
2021/05/03 10:33:39;;;;;;;3.85;3.40;;;10.40;55.40;;;;;;4967849;28;20347;-76
2021/05/03 10:36:06;;;;;;;4.10;3.25;;;10.40;57.50;;;;;;4968456;28;20023;-75
2021/05/03 10:38:41;;;;;;;4.10;3.28;;;10.40;55.70;;;;;;4971323;28;20027;-75
2021/05/03 10:41:31;;;;;;;5.80;3.53;;;10.40;55.00;;;;;;4970646;28;20027;-76
2021/05/03 10:44:13;;;;;;;4.00;3.28;;;10.40;52.00;;;;;;4970611;28;20053;-76
2021/05/03 10:57:15;;;;;;;3.80;2.90;;;10.50;53.20;;;;;;4961540;28;20034;-74
2021/05/03 10:59:51;;;;;;;6.15;3.55;;;10.60;53.80;;;;;;4967259;28;20026;-75
2021/05/03 11:02:19;;;;;;;4.60;3.38;;;10.60;54.40;;;;;;4973056;28;20030;-75
2021/05/03 11:05:26;;;;;;;4.25;3.35;;;10.50;55.40;;;;;;4966022;28;20097;-75
2021/05/03 11:08:04;;;;;;;3.90;2.83;;;10.50;55.70;;;;;;4979025;28;20027;-75
2021/05/03 11:11:11;;;;;;;5.65;2.88;;;10.40;54.60;;;;;;4971647;28;20336;-75
2021/05/03 11:13:37;;;;;;;4.80;3.33;;;10.30;55.50;;;;;;4958256;28;20486;-75
2021/05/03 11:16:28;;;;;;;4.28;3.30;;;10.30;53.30;;;;;;4966837;28;20030;-75
2021/05/03 11:18:56;;;;;;;3.95;2.92;;;10.20;53.40;;;;;;4969138;28;20474;-75
2021/05/03 11:21:43;;;;;;;4.70;3.13;;;10.20;52.30;;;;;;4971221;28;20105;-75
2021/05/03 11:24:16;;;;;;;3.30;3.00;;;10.20;53.00;;;;;;4966811;28;20389;-76
2021/05/03 11:26:55;;;;;;;3.20;2.90;;;10.30;52.20;;;;;;4967956;28;20273;-75
2021/05/03 11:29:22;;;;;;;;;;;10.20;52.90;;;;;;4969867;28;20049;-75
2021/05/03 11:31:48;;;;;;;7.73;4.10;;;10.30;54.60;;;;;;4967467;28;19942;-75
2021/05/03 11:34:25;;;;;;;4.45;3.28;;;10.30;54.90;;;;;;4967506;28;22000;-75
2021/05/03 11:36:58;;;;;;;6.68;3.63;;;10.30;54.30;;;;;;4975002;28;20027;-76
2021/05/03 11:40:01;;;;;;;7.07;3.85;;;10.40;57.50;;;;;;4969209;28;20034;-75
2021/05/03 11:42:42;;;;;;;6.35;3.60;;;10.50;56.90;;;;;;4965587;28;20039;-75
2021/05/03 11:45:15;;;;;;;4.38;3.47;;;10.80;59.80;;;;;;4962216;28;20031;-74
2021/05/03 11:47:42;;;;;;;4.68;3.55;;;11.10;55.80;;;;;;4970178;28;20031;-75
2021/05/03 11:50:09;;;;;;;4.07;3.28;;;11.10;54.90;;;;;;4967925;28;20046;-75
2021/05/03 11:52:37;;;;;;;4.32;3.42;;;11.10;53.20;;;;;;4965576;28;20101;-76
2021/05/03 11:55:15;;;;;;;6.13;3.30;;;11.00;53.30;;;;;;4970307;28;20038;-75
2021/05/03 11:57:47;;;;;;;5.40;3.65;;;10.90;56.40;;;;;;4963562;28;20027;-75
2021/05/03 12:00:21;;;;;;;5.50;3.97;;;10.90;53.60;;;;;;4964975;28;20042;-75
2021/05/03 12:02:58;;;;;;;5.03;4.00;;;10.80;55.60;;;;;;4970392;28;20390;-75
2021/05/03 12:05:24;;;;;;;6.40;3.70;;;10.90;57.30;;;;;;4967787;28;20583;-75
2021/05/03 12:07:50;;;;;;;5.55;3.78;;;11.10;54.30;;;;;;4969098;28;20027;-75
2021/05/03 12:10:20;;;;;;;4.32;3.47;;;11.20;56.10;;;;;;4968093;28;20027;-76
2021/05/03 12:12:53;;;;;;;4.57;3.42;;;11.30;53.10;;;;;;4967836;28;20049;-75
2021/05/03 12:15:27;;;;;;;4.68;3.47;;;11.30;54.90;;;;;;4967606;28;20638;-76
2021/05/03 12:18:00;;;;;;;4.90;3.70;;;11.40;53.70;;;;;;4966514;28;20061;-76
2021/05/03 12:20:28;;;;;;;4.88;4.03;;;11.60;58.00;;;;;;4970747;28;20027;-76
2021/05/03 12:23:07;;;;;;;3.75;3.00;;;11.70;51.30;;;;;;4966830;28;20116;-76
2021/05/03 12:25:44;;;;;;;7.10;3.38;;;11.70;52.30;;;;;;4955064;28;20073;-75
2021/05/03 12:28:12;;;;;;;5.63;3.10;;;11.70;51.60;;;;;;4967966;28;20039;-75
2021/05/03 12:30:39;;;;;;;3.05;2.75;;;11.70;50.30;;;;;;4966827;28;20035;-75
2021/05/03 12:33:10;;;;;;;5.32;2.92;;;11.80;52.00;;;;;;4967925;28;20523;-76
2021/05/03 12:35:36;;;;;;;3.83;3.05;;;11.90;53.40;;;;;;4963566;28;20061;-75
2021/05/03 12:38:31;;;;;;;3.45;2.67;;;11.90;51.00;;;;;;4968768;28;20046;-76
2021/05/03 12:41:02;;;;;;;2.80;2.58;;;11.80;50.20;;;;;;4970308;28;20393;-75
2021/05/03 12:43:48;;;;;;;4.05;2.83;;;11.80;48.60;;;;;;4968116;28;20030;-75
2021/05/03 12:46:26;;;;;;;4.80;2.60;;;11.80;50.20;;;;;;4964617;28;20030;-75
2021/05/03 12:48:58;;;;;;;4.45;2.95;;;11.90;51.40;;;;;;4971136;28;20480;-75
2021/05/03 12:51:38;;;;;;;3.97;3.03;;;11.80;48.60;;;;;;4972426;28;20548;-75
2021/05/03 12:54:32;;;;;;;4.05;3.10;;;11.80;49.70;;;;;;4970580;28;20039;-76
2021/05/03 12:59:51;;;;;;;2.83;2.45;;;11.90;50.30;;;;;;4969022;28;20023;-76
2021/05/03 13:29:08;;;;;;;3.08;2.72;;;12.40;46.80;;;;;;4973669;28;20498;-75
2021/05/03 13:31:35;;;;;;;3.67;2.72;;;12.40;48.20;;;;;;4967141;28;20030;-76
2021/05/03 13:34:03;;;;;;;4.38;2.70;;;12.40;49.10;;;;;;4966875;28;20026;-75
2021/05/03 13:36:29;;;;;;;3.00;2.38;;;12.40;50.10;;;;;;4970170;28;20038;-75
2021/05/03 13:38:55;;;;;;;2.35;2.15;;;12.60;48.30;;;;;;4974699;28;20049;-75
2021/05/03 13:41:22;;;;;;;3.90;2.97;;;12.50;44.30;;;;;;4968839;28;20031;-75
2021/05/03 13:43:48;;;;;;;3.00;2.70;;;12.40;44.80;;;;;;4969311;28;20497;-76
2021/05/03 13:46:14;;;;;;;3.90;2.67;;;12.30;45.70;;;;;;4969425;28;20026;-76
2021/05/03 13:48:40;;;;;;;2.67;2.13;;;12.20;47.90;;;;;;4969801;28;20477;-76
2021/05/03 13:51:07;;;;;;;3.72;2.67;;;12.20;43.70;;;;;;4972163;28;20030;-76
2021/05/03 13:53:37;;;;;;;3.55;2.50;;;12.30;46.80;;;;;;4968270;28;20122;-75